Time;durP1;ratioP1;P1;durP2;ratioP2;P2;SDS_P1;SDS_P2;PMS_P1;PMS_P2;Temp;Humidity;BMP_temperature;BMP_pressure;BME280_temperature;BME280_humidity;BME280_pressure;Samples;Min_cycle;Max_cycle;Signal;HPM_P1;HPM_P2
2021/06/02 00:02:15;;;;;;;5.50;2.83;;;11.70;99.90;;;;;;5024856;28;20631;-88
2021/06/02 00:04:44;;;;;;;4.43;3.30;;;11.70;99.90;;;;;;5025443;28;20634;-87
2021/06/02 00:07:13;;;;;;;4.30;3.73;;;11.60;99.90;;;;;;5021158;28;20632;-91
2021/06/02 00:09:40;;;;;;;3.53;2.87;;;11.50;99.90;;;;;;5022389;28;20656;-89
2021/06/02 00:12:10;;;;;;;3.37;2.87;;;11.50;99.90;;;;;;5023904;28;20628;-89
2021/06/02 00:14:37;;;;;;;5.30;3.90;;;11.40;99.90;;;;;;5028320;28;20624;-89
2021/06/02 00:17:06;;;;;;;3.00;2.67;;;11.40;99.90;;;;;;5022461;28;20647;-89
2021/06/02 00:19:32;;;;;;;3.63;3.33;;;11.50;99.90;;;;;;5022383;28;20662;-90
2021/06/02 00:22:00;;;;;;;3.27;3.07;;;11.40;99.90;;;;;;5025701;28;20649;-89
2021/06/02 00:24:27;;;;;;;3.73;3.20;;;11.40;99.90;;;;;;5026180;28;20631;-89
2021/06/02 00:26:56;;;;;;;4.40;3.50;;;11.40;99.90;;;;;;5023363;28;20640;-89
2021/06/02 00:29:26;;;;;;;3.30;3.00;;;11.40;99.90;;;;;;5016884;28;21273;-89
2021/06/02 00:31:53;;;;;;;3.70;3.00;;;11.40;99.90;;;;;;5024184;28;20631;-88
2021/06/02 00:34:20;;;;;;;3.57;3.27;;;11.40;99.90;;;;;;5030290;28;20618;-88
2021/06/02 00:36:47;;;;;;;3.30;2.97;;;11.30;99.90;;;;;;5022698;28;20628;-88
2021/06/02 00:39:14;;;;;;;3.37;3.00;;;11.30;99.90;;;;;;5024929;28;20677;-87
2021/06/02 00:41:43;;;;;;;2.80;2.60;;;11.30;99.90;;;;;;5024387;28;20642;-89
2021/06/02 00:44:12;;;;;;;3.20;2.90;;;11.20;99.90;;;;;;5025866;28;20701;-89
2021/06/02 00:46:42;;;;;;;4.70;3.90;;;11.20;99.90;;;;;;5021594;28;20614;-88
2021/06/02 00:49:10;;;;;;;3.70;3.40;;;11.10;99.90;;;;;;5021517;28;21000;-88
2021/06/02 00:51:37;;;;;;;3.80;3.03;;;11.00;99.90;;;;;;5019808;28;20646;-88
2021/06/02 00:54:05;;;;;;;3.50;3.30;;;11.00;99.90;;;;;;5021719;28;20815;-88
2021/06/02 00:56:38;;;;;;;4.80;3.50;;;10.90;99.90;;;;;;5023852;28;20635;-88
2021/06/02 00:59:05;;;;;;;3.40;3.10;;;10.90;99.90;;;;;;5024017;28;21125;-89
2021/06/02 01:01:34;;;;;;;4.20;3.90;;;10.80;99.90;;;;;;5021163;28;20654;-90
2021/06/02 01:04:03;;;;;;;5.90;3.30;;;10.80;99.90;;;;;;5030258;28;21080;-90
2021/06/02 01:06:33;;;;;;;6.83;3.93;;;10.80;99.90;;;;;;5018773;28;20627;-89
2021/06/02 01:09:02;;;;;;;3.60;3.27;;;10.80;99.90;;;;;;5024305;28;20675;-90
2021/06/02 01:11:29;;;;;;;3.70;3.17;;;10.80;99.90;;;;;;5022512;28;20650;-89
2021/06/02 01:13:57;;;;;;;3.73;3.37;;;10.80;99.90;;;;;;5024987;28;20634;-89
2021/06/02 01:16:27;;;;;;;3.43;3.10;;;10.70;99.90;;;;;;5022490;28;20639;-89
2021/06/02 01:18:53;;;;;;;4.10;3.27;;;10.60;99.90;;;;;;5021766;28;20666;-89
2021/06/02 01:21:23;;;;;;;3.23;3.00;;;10.60;99.90;;;;;;5025473;28;20648;-89
2021/06/02 01:23:55;;;;;;;4.20;3.90;;;10.50;99.90;;;;;;5024682;28;21204;-90
2021/06/02 01:26:24;;;;;;;3.60;3.27;;;10.40;99.90;;;;;;5024393;28;21041;-90
2021/06/02 01:28:51;;;;;;;3.77;3.47;;;10.50;99.90;;;;;;5022456;28;20631;-90
2021/06/02 01:31:34;;;;;;;3.77;3.47;;;10.50;99.90;;;;;;5020310;28;20646;-90
2021/06/02 01:34:06;;;;;;;3.63;3.33;;;10.50;99.90;;;;;;5023787;28;20613;-89
2021/06/02 01:36:53;;;;;;;3.90;3.60;;;10.50;99.90;;;;;;5031808;28;20623;-89
2021/06/02 01:39:48;;;;;;;3.87;3.07;;;10.40;99.90;;;;;;5024475;28;20673;-89
2021/06/02 01:42:36;;;;;;;4.20;3.80;;;10.40;99.90;;;;;;5023440;28;20591;-88
2021/06/02 01:45:34;;;;;;;4.40;3.87;;;10.40;99.90;;;;;;5017574;28;20713;-90
2021/06/02 01:48:27;;;;;;;4.53;4.13;;;10.30;99.90;;;;;;5019084;28;21195;-89
2021/06/02 01:51:27;;;;;;;9.43;4.73;;;10.30;99.90;;;;;;5020545;28;20650;-88
2021/06/02 01:54:32;;;;;;;5.90;5.10;;;10.20;99.90;;;;;;5024203;28;20961;-89
2021/06/02 01:57:36;;;;;;;6.00;4.53;;;10.20;99.90;;;;;;5023314;28;20614;-89
2021/06/02 02:00:32;;;;;;;4.80;4.40;;;10.20;99.90;;;;;;5015210;28;20678;-89
2021/06/02 02:03:31;;;;;;;5.93;4.70;;;10.20;99.90;;;;;;5017577;28;20681;-89
2021/06/02 02:06:21;;;;;;;5.10;4.70;;;10.20;99.90;;;;;;4995619;28;20662;-90
2021/06/02 02:08:59;;;;;;;5.13;4.63;;;10.10;99.90;;;;;;5023855;28;20622;-88
2021/06/02 02:11:34;;;;;;;4.90;4.60;;;10.00;99.90;;;;;;5022810;28;21041;-87
2021/06/02 02:14:22;;;;;;;5.03;4.63;;;10.00;99.90;;;;;;5015787;28;20674;-87
2021/06/02 02:17:04;;;;;;;4.60;4.30;;;10.00;99.90;;;;;;5020006;28;20626;-88
2021/06/02 02:19:56;;;;;;;4.90;4.03;;;10.00;99.90;;;;;;5019484;28;20655;-88
2021/06/02 02:22:33;;;;;;;4.17;3.87;;;9.90;99.90;;;;;;5022578;28;20607;-88
2021/06/02 02:25:03;;;;;;;4.20;3.90;;;9.90;99.90;;;;;;5019615;28;20689;-87
2021/06/02 02:27:39;;;;;;;4.47;4.17;;;9.90;99.90;;;;;;5020697;28;20630;-89
2021/06/02 02:30:12;;;;;;;4.53;4.00;;;9.80;99.90;;;;;;5025350;28;20666;-87
2021/06/02 02:33:07;;;;;;;4.27;3.97;;;9.70;99.90;;;;;;5038540;28;21273;-86
2021/06/02 02:35:44;;;;;;;5.10;4.70;;;9.70;99.90;;;;;;5035202;28;20615;-86
2021/06/02 02:38:25;;;;;;;4.60;4.30;;;9.70;99.90;;;;;;5037576;28;20654;-88
2021/06/02 02:41:00;;;;;;;5.00;4.60;;;9.60;99.90;;;;;;5033238;28;20653;-87
2021/06/02 02:43:43;;;;;;;4.80;4.40;;;9.60;99.90;;;;;;5023671;28;20626;-87
2021/06/02 02:46:17;;;;;;;6.60;5.20;;;9.60;99.90;;;;;;5022629;28;20629;-87
2021/06/02 02:48:50;;;;;;;4.63;4.23;;;9.50;99.90;;;;;;5022294;28;20970;-88
2021/06/02 02:51:28;;;;;;;4.80;4.30;;;9.50;99.90;;;;;;5022375;28;20667;-89
2021/06/02 02:54:03;;;;;;;5.03;4.53;;;9.50;99.90;;;;;;5022451;28;21017;-88
2021/06/02 02:56:39;;;;;;;5.43;4.77;;;9.50;99.90;;;;;;5021956;28;20636;-88
2021/06/02 02:59:14;;;;;;;5.07;4.77;;;9.40;99.90;;;;;;5021752;28;20676;-88
2021/06/02 03:01:47;;;;;;;5.13;4.67;;;9.40;99.90;;;;;;5018309;28;20624;-88
2021/06/02 03:04:18;;;;;;;4.80;4.40;;;9.30;99.90;;;;;;5018943;28;20652;-89
2021/06/02 03:06:49;;;;;;;5.47;4.50;;;9.40;99.90;;;;;;5017710;28;20716;-88
2021/06/02 03:09:26;;;;;;;4.70;4.30;;;9.30;99.90;;;;;;5020959;28;20853;-89
2021/06/02 03:12:00;;;;;;;5.20;4.80;;;9.30;99.90;;;;;;5020743;28;20656;-88
2021/06/02 03:14:45;;;;;;;5.03;4.53;;;9.30;99.90;;;;;;5019694;28;20626;-88
2021/06/02 03:17:19;;;;;;;5.10;4.80;;;9.30;99.90;;;;;;5017887;28;20625;-88
2021/06/02 03:19:55;;;;;;;4.50;4.20;;;9.10;99.90;;;;;;5020197;28;20646;-88
2021/06/02 03:22:26;;;;;;;4.90;4.50;;;9.10;99.90;;;;;;5021479;28;20618;-88
2021/06/02 03:25:04;;;;;;;5.27;4.80;;;9.00;99.90;;;;;;5019529;28;21276;-88
2021/06/02 03:27:36;;;;;;;4.90;4.50;;;9.10;99.90;;;;;;5015017;28;20692;-89
2021/06/02 03:30:09;;;;;;;4.73;4.43;;;9.20;99.90;;;;;;5019934;28;21362;-88
2021/06/02 03:33:00;;;;;;;5.50;5.00;;;9.10;99.90;;;;;;5017858;28;21069;-88
2021/06/02 03:35:35;;;;;;;5.90;5.40;;;9.10;99.90;;;;;;5023282;28;20664;-88
2021/06/02 03:38:18;;;;;;;7.47;5.47;;;9.00;99.90;;;;;;5022636;28;20663;-88
2021/06/02 03:40:56;;;;;;;5.17;4.80;;;9.10;99.90;;;;;;5020758;28;20736;-88
2021/06/02 03:43:26;;;;;;;5.17;4.77;;;9.00;99.90;;;;;;5017817;28;20637;-89
2021/06/02 03:46:06;;;;;;;5.30;4.90;;;9.00;99.90;;;;;;5021674;28;20628;-89
2021/06/02 03:48:41;;;;;;;5.33;4.87;;;9.00;99.90;;;;;;5019118;28;20638;-89
2021/06/02 03:51:19;;;;;;;6.00;5.60;;;9.10;99.90;;;;;;5020068;28;20650;-89
2021/06/02 03:53:59;;;;;;;6.30;5.80;;;9.10;99.90;;;;;;5018234;28;20635;-88
2021/06/02 03:57:05;;;;;;;6.00;4.70;;;9.10;99.90;;;;;;5022298;28;20635;-88
2021/06/02 03:59:39;;;;;;;5.40;4.90;;;9.10;99.90;;;;;;4971753;28;21074;-87
2021/06/02 04:02:14;;;;;;;6.13;5.63;;;9.10;99.90;;;;;;5011286;28;20618;-86
2021/06/02 04:05:12;;;;;;;7.10;6.60;;;9.10;99.90;;;;;;5014856;28;20630;-85
2021/06/02 04:07:47;;;;;;;6.90;6.37;;;9.10;99.90;;;;;;5020887;28;20990;-85
2021/06/02 04:10:14;;;;;;;6.50;5.90;;;9.00;99.90;;;;;;5021398;28;20672;-85
2021/06/02 04:12:50;;;;;;;8.27;7.60;;;9.10;99.90;;;;;;5019381;28;20623;-86
2021/06/02 04:15:17;;;;;;;9.70;8.97;;;9.10;99.90;;;;;;5019186;28;20992;-85
2021/06/02 04:17:49;;;;;;;9.40;8.70;;;9.20;99.90;;;;;;5010799;28;20663;-84
2021/06/02 04:20:19;;;;;;;9.93;8.93;;;9.20;99.90;;;;;;5019683;28;20658;-84
2021/06/02 04:22:47;;;;;;;10.60;9.73;;;9.20;99.90;;;;;;5018023;28;20986;-85
2021/06/02 04:25:15;;;;;;;11.67;10.67;;;9.20;99.90;;;;;;5020965;28;20655;-85
2021/06/02 04:27:45;;;;;;;13.73;12.53;;;9.20;99.90;;;;;;5025475;28;20618;-85
2021/06/02 04:30:15;;;;;;;13.73;12.80;;;9.20;99.90;;;;;;5019726;28;20629;-85
2021/06/02 04:32:44;;;;;;;13.57;12.50;;;9.30;99.90;;;;;;5019400;28;20638;-85
2021/06/02 04:35:15;;;;;;;13.10;12.20;;;9.30;99.90;;;;;;5019275;28;20654;-85
2021/06/02 04:37:43;;;;;;;15.47;14.23;;;9.40;99.90;;;;;;5016385;28;20739;-86
2021/06/02 04:40:11;;;;;;;15.70;14.50;;;9.40;99.90;;;;;;5019448;28;20725;-86
2021/06/02 04:42:39;;;;;;;12.67;11.87;;;9.50;99.90;;;;;;5020004;28;20617;-85
2021/06/02 04:45:07;;;;;;;13.07;12.07;;;9.50;99.90;;;;;;5022514;28;20666;-85
2021/06/02 04:47:35;;;;;;;11.20;10.40;;;9.60;99.90;;;;;;5023924;28;20628;-84
2021/06/02 04:50:14;;;;;;;11.90;10.87;;;9.60;99.90;;;;;;5023551;28;20618;-86
2021/06/02 04:53:27;;;;;;;12.17;11.13;;;9.70;99.90;;;;;;5015490;28;21212;-85
2021/06/02 04:56:30;;;;;;;10.90;10.10;;;9.70;99.90;;;;;;4978586;28;20631;-86
2021/06/02 04:59:24;;;;;;;10.67;9.90;;;9.90;99.90;;;;;;5019017;28;20669;-86
2021/06/02 05:02:18;;;;;;;11.27;10.40;;;10.10;99.90;;;;;;5019697;28;20633;-86
2021/06/02 05:05:15;;;;;;;11.10;10.20;;;10.30;99.90;;;;;;5025565;28;21248;-86
2021/06/02 05:08:19;;;;;;;12.13;10.53;;;10.40;99.90;;;;;;5024344;28;20653;-85
2021/06/02 05:11:32;;;;;;;10.27;9.37;;;10.60;99.90;;;;;;5024911;28;20625;-86
2021/06/02 05:14:46;;;;;;;8.77;7.87;;;10.80;99.90;;;;;;5024946;28;21287;-86
2021/06/02 05:17:54;;;;;;;8.77;8.07;;;11.00;99.90;;;;;;5017532;28;21259;-86
2021/06/02 05:24:36;;;;;;;7.90;7.27;;;11.30;99.90;;;;;;4985277;28;20680;-85
2021/06/02 05:27:33;;;;;;;7.20;6.30;;;11.40;99.90;;;;;;5021130;28;21316;-84
2021/06/02 05:30:37;;;;;;;7.07;6.53;;;11.50;99.90;;;;;;5023707;28;20688;-86
2021/06/02 05:33:49;;;;;;;6.93;6.23;;;11.60;99.90;;;;;;5021796;28;20668;-85
2021/06/02 05:36:47;;;;;;;6.00;5.60;;;11.70;99.90;;;;;;5000569;28;20637;-85
2021/06/02 05:39:32;;;;;;;8.47;6.30;;;11.90;99.90;;;;;;5025371;28;20706;-84
2021/06/02 05:42:11;;;;;;;7.43;6.90;;;12.10;99.90;;;;;;5023701;28;20629;-86
2021/06/02 05:45:29;;;;;;;5.60;5.20;;;12.30;99.90;;;;;;5023557;28;20650;-84
2021/06/02 05:48:28;;;;;;;6.50;5.63;;;12.60;99.90;;;;;;5023120;28;20627;-84
2021/06/02 05:51:51;;;;;;;6.47;5.97;;;13.00;99.90;;;;;;5013536;28;20621;-85
2021/06/02 05:54:50;;;;;;;6.37;5.77;;;13.40;99.90;;;;;;5006406;28;20664;-86
2021/06/02 05:57:57;;;;;;;6.07;5.47;;;13.60;99.90;;;;;;5030283;28;20627;-89
2021/06/02 06:00:57;;;;;;;6.53;5.70;;;13.70;99.90;;;;;;5025300;28;20619;-85
2021/06/02 06:04:01;;;;;;;4.80;4.50;;;13.70;99.90;;;;;;5028497;28;21343;-86
2021/06/02 06:06:40;;;;;;;5.63;5.03;;;13.80;99.90;;;;;;5026692;28;20994;-87
2021/06/02 06:09:57;;;;;;;5.60;5.07;;;14.10;99.90;;;;;;5032311;28;21203;-85
2021/06/02 06:13:05;;;;;;;5.33;4.93;;;14.00;99.90;;;;;;5031973;28;21213;-84
2021/06/02 06:16:19;;;;;;;4.93;4.53;;;14.00;99.90;;;;;;5029494;28;20763;-86
2021/06/02 06:19:12;;;;;;;5.10;4.70;;;14.20;99.90;;;;;;5031409;28;20684;-84
2021/06/02 06:22:28;;;;;;;4.67;4.20;;;14.70;99.90;;;;;;5029498;28;20623;-85
2021/06/02 06:25:01;;;;;;;5.50;4.37;;;14.90;99.90;;;;;;4988614;28;21267;-85
2021/06/02 06:27:35;;;;;;;5.53;5.07;;;15.20;99.90;;;;;;5025066;28;20644;-85
2021/06/02 06:30:05;;;;;;;3.90;3.60;;;15.40;99.90;;;;;;5024104;28;20637;-85
2021/06/02 06:32:35;;;;;;;4.20;3.60;;;15.40;99.90;;;;;;5021370;28;20646;-85
2021/06/02 06:35:04;;;;;;;4.73;4.30;;;15.60;99.90;;;;;;5022202;28;20639;-84
2021/06/02 06:37:34;;;;;;;5.60;4.10;;;15.50;99.90;;;;;;5022298;28;20631;-86
2021/06/02 06:40:06;;;;;;;3.87;3.40;;;15.70;99.90;;;;;;5024168;28;20627;-87
2021/06/02 06:42:38;;;;;;;3.90;3.60;;;15.70;99.70;;;;;;5021835;28;20642;-87
2021/06/02 06:45:10;;;;;;;5.00;3.73;;;15.60;98.80;;;;;;5021090;28;21071;-85
2021/06/02 06:47:38;;;;;;;4.20;3.63;;;15.70;98.90;;;;;;5027819;28;20646;-87
2021/06/02 06:50:09;;;;;;;4.40;4.00;;;16.00;98.30;;;;;;5027560;28;20623;-86
2021/06/02 06:52:37;;;;;;;4.20;3.80;;;16.20;97.80;;;;;;5023377;28;20643;-86
2021/06/02 06:55:08;;;;;;;4.27;3.87;;;16.30;97.20;;;;;;5024364;28;21046;-87
2021/06/02 06:57:36;;;;;;;4.57;4.00;;;16.50;96.60;;;;;;5023859;28;20643;-86
2021/06/02 07:00:05;;;;;;;8.00;4.40;;;16.50;96.60;;;;;;5022152;28;20665;-87
2021/06/02 07:02:32;;;;;;;4.90;3.90;;;16.50;97.00;;;;;;5023310;28;20626;-87
2021/06/02 07:04:58;;;;;;;4.20;3.80;;;16.70;96.70;;;;;;5021564;28;20643;-87
2021/06/02 07:07:26;;;;;;;4.03;3.60;;;16.50;96.80;;;;;;5021518;28;20623;-87
2021/06/02 07:09:52;;;;;;;4.37;2.90;;;16.80;96.50;;;;;;5021418;28;20626;-86
2021/06/02 07:12:23;;;;;;;3.77;3.40;;;16.80;96.90;;;;;;5021714;28;20714;-86
2021/06/02 07:14:50;;;;;;;4.43;3.10;;;17.20;96.00;;;;;;5021247;28;20666;-87
2021/06/02 07:17:18;;;;;;;3.23;2.93;;;17.30;95.20;;;;;;5024896;28;21201;-87
2021/06/02 07:19:48;;;;;;;3.63;3.23;;;17.30;95.30;;;;;;5022035;28;21115;-86
2021/06/02 07:22:18;;;;;;;3.40;3.10;;;17.30;93.30;;;;;;5023759;28;20628;-87
2021/06/02 07:24:45;;;;;;;4.53;3.10;;;17.50;93.60;;;;;;5023573;28;20657;-86
2021/06/02 07:27:11;;;;;;;5.53;3.27;;;17.40;94.10;;;;;;5019296;28;20634;-86
2021/06/02 07:29:39;;;;;;;4.07;2.77;;;17.70;93.60;;;;;;5021485;28;20921;-86
2021/06/02 07:32:06;;;;;;;3.63;3.27;;;17.90;92.60;;;;;;5023441;28;20642;-87
2021/06/02 07:34:32;;;;;;;9.27;3.80;;;17.90;92.80;;;;;;5023148;28;20655;-87
2021/06/02 07:36:59;;;;;;;2.53;2.33;;;18.10;92.70;;;;;;5022782;28;20665;-87
2021/06/02 07:39:25;;;;;;;3.17;2.30;;;18.40;92.00;;;;;;5020880;28;20681;-86
2021/06/02 07:41:51;;;;;;;5.53;2.93;;;18.50;91.60;;;;;;5022521;28;20633;-88
2021/06/02 07:44:18;;;;;;;3.73;3.10;;;18.60;91.20;;;;;;5022174;28;20622;-87
2021/06/02 07:46:46;;;;;;;4.57;2.97;;;18.60;91.20;;;;;;5021118;28;20644;-87
2021/06/02 07:49:13;;;;;;;3.10;2.50;;;18.70;90.90;;;;;;5020255;28;20736;-87
2021/06/02 07:51:39;;;;;;;3.83;2.80;;;18.80;91.20;;;;;;5020437;28;21016;-86
2021/06/02 07:54:07;;;;;;;3.00;2.23;;;18.90;91.00;;;;;;5020355;28;20638;-87
2021/06/02 07:56:34;;;;;;;4.93;2.37;;;18.80;89.90;;;;;;5022160;28;20638;-88
2021/06/02 07:59:01;;;;;;;2.57;2.37;;;19.00;90.10;;;;;;5022284;28;20748;-88
2021/06/02 08:01:28;;;;;;;6.97;2.57;;;19.20;89.40;;;;;;5021799;28;20626;-87
2021/06/02 08:03:55;;;;;;;7.07;2.23;;;19.20;89.40;;;;;;5018316;28;20623;-88
2021/06/02 08:06:22;;;;;;;3.60;2.60;;;19.50;87.80;;;;;;5020766;28;20630;-87
2021/06/02 08:08:48;;;;;;;4.60;2.60;;;19.40;87.40;;;;;;5021171;28;20658;-87
2021/06/02 08:11:14;;;;;;;3.70;2.83;;;19.70;87.40;;;;;;5020580;28;20634;-87
2021/06/02 08:13:40;;;;;;;3.63;2.30;;;19.70;86.60;;;;;;5018128;28;21448;-89
2021/06/02 08:16:07;;;;;;;3.83;2.80;;;19.80;85.20;;;;;;5021289;28;20676;-86
2021/06/02 08:18:33;;;;;;;2.83;2.43;;;19.80;84.70;;;;;;5024094;28;20682;-88
2021/06/02 08:21:01;;;;;;;3.50;2.73;;;19.90;83.40;;;;;;5025856;28;20631;-87
2021/06/02 08:23:27;;;;;;;3.57;3.00;;;20.10;82.20;;;;;;5025953;28;20971;-88
2021/06/02 08:25:53;;;;;;;6.80;2.40;;;20.10;81.10;;;;;;5025066;28;20634;-87
2021/06/02 08:28:20;;;;;;;3.10;2.27;;;20.30;78.60;;;;;;5025318;28;20627;-87
2021/06/02 08:30:46;;;;;;;3.83;2.00;;;20.30;73.80;;;;;;5025868;28;20645;-88
2021/06/02 08:33:13;;;;;;;5.50;2.43;;;20.50;76.50;;;;;;5016009;28;20647;-87
2021/06/02 08:35:40;;;;;;;2.30;2.10;;;20.70;76.00;;;;;;5023272;28;20684;-88
2021/06/02 08:38:07;;;;;;;3.40;2.50;;;20.70;76.40;;;;;;5022205;28;21248;-86
2021/06/02 08:40:34;;;;;;;4.50;2.00;;;20.90;75.30;;;;;;5023007;28;22024;-86
2021/06/02 08:43:00;;;;;;;2.37;2.17;;;20.90;75.20;;;;;;5025516;28;20653;-86
2021/06/02 08:45:27;;;;;;;3.70;2.50;;;20.70;74.60;;;;;;5025231;28;20615;-85
2021/06/02 08:47:54;;;;;;;2.43;2.20;;;20.90;75.10;;;;;;5024679;28;20671;-85
2021/06/02 08:50:21;;;;;;;2.60;1.80;;;20.90;74.40;;;;;;5023898;28;20646;-85
2021/06/02 08:52:49;;;;;;;2.60;2.40;;;20.90;74.10;;;;;;5022794;28;20639;-87
2021/06/02 08:55:18;;;;;;;3.47;2.20;;;21.30;74.50;;;;;;5022902;28;20646;-85
2021/06/02 08:57:47;;;;;;;8.00;2.40;;;21.40;75.40;;;;;;5023092;28;20641;-85
2021/06/02 09:00:16;;;;;;;6.03;2.23;;;21.50;75.60;;;;;;5024799;28;20643;-87
2021/06/02 09:02:45;;;;;;;2.57;2.37;;;21.70;75.40;;;;;;5023731;28;20627;-86
2021/06/02 09:05:12;;;;;;;5.10;2.40;;;21.60;73.40;;;;;;5027931;28;20627;-86
2021/06/02 09:07:41;;;;;;;7.70;3.10;;;21.60;72.90;;;;;;5021390;28;20626;-84
2021/06/02 09:10:09;;;;;;;3.43;2.20;;;21.70;71.00;;;;;;5022118;28;20697;-84
2021/06/02 09:12:39;;;;;;;2.47;2.23;;;22.10;71.60;;;;;;5025172;28;20630;-84
2021/06/02 09:15:08;;;;;;;1.80;1.70;;;22.50;69.00;;;;;;5022690;28;20622;-85
2021/06/02 09:17:47;;;;;;;5.80;2.43;;;22.30;68.00;;;;;;5020428;28;20623;-84
2021/06/02 09:20:30;;;;;;;2.40;2.20;;;22.40;67.90;;;;;;5023334;28;20818;-86
2021/06/02 09:22:57;;;;;;;2.63;1.97;;;22.80;68.20;;;;;;5020843;28;21216;-84
2021/06/02 09:25:23;;;;;;;3.63;1.70;;;22.70;67.10;;;;;;5024134;28;21209;-85
2021/06/02 09:27:55;;;;;;;2.37;1.67;;;23.00;68.50;;;;;;5023273;28;21180;-85
2021/06/02 09:30:24;;;;;;;3.20;2.30;;;23.10;63.10;;;;;;5023426;28;20769;-84
2021/06/02 09:32:53;;;;;;;6.00;2.23;;;23.30;64.20;;;;;;5023569;28;21037;-85
2021/06/02 09:35:20;;;;;;;2.20;2.00;;;23.50;63.70;;;;;;5023623;28;20619;-84
2021/06/02 09:37:56;;;;;;;1.97;1.87;;;23.50;60.20;;;;;;5021076;28;20634;-84
2021/06/02 09:40:27;;;;;;;2.27;2.07;;;23.30;59.50;;;;;;5023054;28;21054;-85
2021/06/02 09:42:56;;;;;;;3.30;1.90;;;23.10;59.40;;;;;;5025127;28;21276;-85
2021/06/02 09:45:23;;;;;;;2.73;2.43;;;23.20;59.70;;;;;;5024312;28;20623;-84
2021/06/02 09:47:50;;;;;;;3.40;1.97;;;23.40;58.40;;;;;;5023423;28;20638;-86
2021/06/02 09:50:26;;;;;;;2.60;2.40;;;23.40;57.20;;;;;;5022843;28;20647;-85
2021/06/02 09:52:53;;;;;;;2.00;1.80;;;23.30;56.60;;;;;;5021781;28;21633;-86
2021/06/02 09:55:22;;;;;;;4.80;2.73;;;23.50;57.00;;;;;;5022856;28;21352;-85
2021/06/02 09:58:09;;;;;;;2.50;2.30;;;23.80;58.30;;;;;;5017473;28;20651;-86
2021/06/02 10:00:37;;;;;;;2.73;2.43;;;24.20;57.40;;;;;;5020024;28;20628;-85
2021/06/02 10:03:08;;;;;;;3.00;2.03;;;24.30;55.60;;;;;;5018634;28;20631;-85
2021/06/02 10:05:35;;;;;;;2.17;1.97;;;24.20;55.40;;;;;;5022199;28;20981;-86
2021/06/02 10:08:04;;;;;;;2.00;1.90;;;24.30;54.30;;;;;;5019595;28;20995;-87
2021/06/02 10:10:32;;;;;;;2.80;2.07;;;24.50;55.80;;;;;;5021120;28;20646;-87
2021/06/02 10:13:05;;;;;;;2.30;2.00;;;23.90;54.70;;;;;;5017292;28;20630;-87
2021/06/02 10:15:34;;;;;;;1.80;1.70;;;24.10;54.30;;;;;;5021483;28;20615;-87
2021/06/02 10:18:01;;;;;;;2.27;2.07;;;24.30;53.80;;;;;;5021653;28;20639;-88
2021/06/02 10:20:28;;;;;;;3.83;2.30;;;24.30;54.40;;;;;;5020785;28;20647;-87
2021/06/02 10:22:56;;;;;;;2.27;2.10;;;24.50;53.70;;;;;;5020934;28;20635;-86
2021/06/02 10:25:24;;;;;;;2.53;2.33;;;25.10;54.80;;;;;;5021232;28;20966;-86
2021/06/02 10:27:54;;;;;;;2.30;2.10;;;25.10;53.00;;;;;;5019842;28;22052;-87
2021/06/02 10:30:27;;;;;;;2.50;2.30;;;25.80;53.20;;;;;;5019792;28;21081;-86
2021/06/02 10:32:56;;;;;;;3.90;2.37;;;25.70;52.50;;;;;;5007056;28;21231;-87
2021/06/02 10:35:23;;;;;;;4.80;2.73;;;25.70;51.90;;;;;;5015411;28;21216;-87
2021/06/02 10:37:53;;;;;;;3.40;3.20;;;25.30;52.40;;;;;;5017995;28;20635;-87
2021/06/02 10:40:21;;;;;;;3.10;2.23;;;26.00;53.20;;;;;;5015613;28;21315;-87
2021/06/02 10:42:55;;;;;;;2.90;2.03;;;26.10;50.90;;;;;;5019423;28;20956;-87
2021/06/02 10:45:26;;;;;;;3.67;1.70;;;26.50;51.30;;;;;;5015188;28;20638;-88
2021/06/02 10:47:55;;;;;;;2.37;2.00;;;26.80;49.90;;;;;;5012212;28;20658;-86
2021/06/02 10:50:38;;;;;;;1.67;1.57;;;26.10;48.50;;;;;;5016171;28;20665;-87
2021/06/02 10:53:24;;;;;;;2.53;2.20;;;26.10;48.00;;;;;;5014306;28;20634;-87
2021/06/02 10:55:51;;;;;;;2.40;1.73;;;26.60;47.80;;;;;;5014617;28;20622;-87
2021/06/02 10:58:28;;;;;;;2.37;1.90;;;26.80;47.40;;;;;;5019773;28;20638;-87
2021/06/02 11:01:17;;;;;;;3.23;2.47;;;26.80;47.80;;;;;;5014577;28;20631;-87
2021/06/02 11:03:46;;;;;;;3.10;2.40;;;26.90;46.80;;;;;;5018017;28;20726;-87
2021/06/02 11:06:33;;;;;;;3.00;2.10;;;27.50;48.80;;;;;;5018988;28;20735;-87
2021/06/02 11:09:24;;;;;;;4.13;2.40;;;26.90;45.90;;;;;;5019671;28;20663;-87
2021/06/02 11:12:04;;;;;;;2.83;2.63;;;27.00;46.50;;;;;;5021029;28;20630;-87
2021/06/02 11:14:30;;;;;;;2.10;1.87;;;27.30;46.40;;;;;;5023525;28;20638;-87
2021/06/02 11:17:10;;;;;;;2.47;2.27;;;27.30;45.70;;;;;;5020672;28;20627;-87
2021/06/02 11:19:39;;;;;;;3.93;2.60;;;27.30;45.50;;;;;;5016125;28;21320;-87
2021/06/02 11:22:08;;;;;;;2.60;2.10;;;27.20;44.70;;;;;;5026178;28;20660;-88
2021/06/02 11:24:42;;;;;;;2.60;2.40;;;27.00;44.10;;;;;;5022785;28;20615;-87
2021/06/02 11:27:29;;;;;;;4.60;1.87;;;27.30;45.30;;;;;;5019986;28;20618;-87
2021/06/02 11:30:18;;;;;;;5.03;2.03;;;27.20;45.00;;;;;;5015295;28;21228;-88
2021/06/02 11:32:51;;;;;;;3.63;2.20;;;27.50;45.40;;;;;;5017028;28;20643;-88
2021/06/02 11:35:17;;;;;;;2.47;2.07;;;28.10;45.10;;;;;;5018298;28;20631;-87
2021/06/02 11:37:45;;;;;;;2.37;2.17;;;28.40;44.60;;;;;;5020698;28;20615;-87
2021/06/02 11:40:14;;;;;;;2.37;2.10;;;28.30;44.80;;;;;;5022385;28;21048;-88
2021/06/02 11:42:43;;;;;;;4.70;2.40;;;28.70;45.40;;;;;;5017387;28;20646;-87
2021/06/02 11:45:12;;;;;;;2.10;2.00;;;29.30;42.90;;;;;;5022704;28;21130;-88
2021/06/02 11:47:44;;;;;;;2.73;2.20;;;29.00;44.00;;;;;;5020817;28;21490;-88
2021/06/02 11:50:15;;;;;;;2.93;2.37;;;29.30;43.10;;;;;;5021295;28;20729;-88
2021/06/02 11:52:42;;;;;;;5.40;2.60;;;30.00;43.30;;;;;;5017380;28;20631;-88
2021/06/02 11:55:10;;;;;;;2.50;2.30;;;30.00;41.80;;;;;;5019526;28;21002;-88
2021/06/02 11:57:38;;;;;;;3.07;2.00;;;29.90;42.10;;;;;;5019011;28;21262;-87
2021/06/02 12:00:07;;;;;;;2.63;2.43;;;30.00;41.60;;;;;;5018626;28;20678;-88
2021/06/02 12:02:35;;;;;;;2.50;2.30;;;30.50;41.20;;;;;;5018871;28;20623;-88
2021/06/02 12:05:20;;;;;;;2.87;1.63;;;30.80;41.70;;;;;;5018784;28;20692;-88
2021/06/02 12:07:48;;;;;;;5.07;2.37;;;30.30;40.70;;;;;;5017146;28;20688;-88
2021/06/02 12:10:16;;;;;;;2.30;2.10;;;30.60;40.90;;;;;;5017424;28;20657;-89
2021/06/02 12:12:44;;;;;;;3.00;2.60;;;31.10;40.00;;;;;;5012251;28;20643;-89
2021/06/02 12:15:40;;;;;;;2.73;2.00;;;31.20;40.00;;;;;;5018912;28;20641;-89
2021/06/02 12:18:06;;;;;;;4.80;2.10;;;30.70;39.80;;;;;;5016512;28;20623;-90
2021/06/02 12:20:36;;;;;;;2.10;1.90;;;31.10;37.80;;;;;;5020393;28;20686;-87
2021/06/02 12:23:45;;;;;;;2.43;2.00;;;31.00;38.90;;;;;;5020353;28;22008;-90
2021/06/02 12:26:19;;;;;;;2.80;2.10;;;31.50;37.20;;;;;;5026801;28;21267;-86
2021/06/02 12:28:47;;;;;;;4.33;2.40;;;31.50;38.30;;;;;;5022011;28;20667;-86
2021/06/02 12:31:32;;;;;;;2.50;1.90;;;31.40;37.30;;;;;;5017227;28;20657;-90
2021/06/02 12:34:12;;;;;;;2.70;2.50;;;30.80;38.30;;;;;;5015668;28;20646;-89
2021/06/02 12:36:47;;;;;;;2.60;2.40;;;31.80;37.80;;;;;;5018488;28;20215;-89
2021/06/02 12:39:16;;;;;;;2.47;2.27;;;31.90;36.40;;;;;;5017458;28;20223;-90
2021/06/02 12:41:45;;;;;;;3.63;2.50;;;32.40;37.40;;;;;;5019476;28;20196;-89
2021/06/02 12:44:12;;;;;;;2.22;2.03;;;32.60;37.40;;;;;;5021267;28;20200;-90
2021/06/02 12:46:39;;;;;;;4.00;2.00;;;33.30;37.60;;;;;;5015896;28;20215;-90
2021/06/02 12:49:06;;;;;;;5.55;2.30;;;32.70;35.80;;;;;;5014682;28;20228;-87
2021/06/02 12:51:33;;;;;;;4.22;2.55;;;33.10;36.00;;;;;;5021079;28;20200;-88
2021/06/02 12:54:02;;;;;;;4.80;1.95;;;32.70;35.40;;;;;;5017699;28;20211;-88
2021/06/02 12:56:29;;;;;;;2.10;2.00;;;32.80;35.60;;;;;;5019677;28;20655;-89
2021/06/02 12:58:57;;;;;;;2.40;2.05;;;32.10;36.40;;;;;;5019719;28;20705;-89
2021/06/02 13:01:29;;;;;;;3.85;2.00;;;32.50;35.00;;;;;;5021342;28;20298;-90
2021/06/02 13:03:59;;;;;;;2.25;2.00;;;32.50;36.40;;;;;;5028765;28;20671;-90
2021/06/02 13:06:27;;;;;;;2.77;1.70;;;32.50;37.00;;;;;;5026625;28;20203;-89
2021/06/02 13:08:55;;;;;;;3.00;2.13;;;32.90;36.70;;;;;;5027026;28;20592;-90
2021/06/02 13:11:26;;;;;;;3.75;1.90;;;33.60;35.60;;;;;;5026860;28;20211;-89
2021/06/02 13:13:53;;;;;;;3.50;1.67;;;33.10;34.10;;;;;;5035277;28;20231;-89
2021/06/02 13:16:21;;;;;;;2.85;2.17;;;33.00;34.60;;;;;;5039149;28;20285;-89
2021/06/02 13:18:58;;;;;;;3.15;1.73;;;33.10;34.70;;;;;;5032804;28;20223;-89
2021/06/02 13:21:31;;;;;;;2.05;1.60;;;34.00;35.10;;;;;;5029770;28;20203;-90
2021/06/02 13:24:11;;;;;;;2.78;2.28;;;34.30;34.30;;;;;;5030335;28;20208;-90
2021/06/02 13:26:40;;;;;;;3.90;1.90;;;34.60;33.80;;;;;;5030033;28;20204;-89
2021/06/02 13:29:10;;;;;;;3.38;2.28;;;34.60;34.50;;;;;;5033284;28;20230;-88
2021/06/02 13:31:41;;;;;;;2.20;1.80;;;34.60;33.40;;;;;;5024359;28;20208;-88
2021/06/02 13:34:08;;;;;;;3.88;2.08;;;34.50;34.10;;;;;;5027282;28;20210;-89